• Join FlightAware (Why Join?)
  • Login
  • US Flag 
07:09PM EDT


 

Airport Tracker/Info


-or-


 

Live Flight TrackerFlight Track Log ✈ RPA3153 ✈ 04-Jul-2013 ✈ KPHL - KSAV

Flight Track Log - Related Links

Times and Time Zones

All times are in EDT time to prevent confusion due to time zone crossing. See the RPA3153 flight status page for this flight to view local times or setup timezone preferences in your user account.

Time Position Orientation Groundspeed Altitude Reporting Facility
EDT Latitude Longitude Course Direction KTS MPH feet Rate Location/Type
10:45AM 39.8500 -75.2833 194° South 139 160 900  Level Philadelphia TRACON
10:45AM 39.8333 -75.3000 218° Southwest 179 206 2,000 2,220 Climbing Philadelphia TRACON
10:47AM 39.7614 -75.3728 218° Southwest 209 241 6,100 2,520 Climbing Washington Center
10:48AM 39.6947 -75.3867 189° South 227 261 8,700 2,460 Climbing Washington Center
10:49AM 39.3484 -75.3428 185° South  Level FlightAware Approximate
10:49AM 39.6175 -75.3625 166° South 252 290 11,100  Level Washington Center
10:50AM 39.2431 -75.3634 194° South  Level FlightAware Approximate
10:50AM 39.5319 -75.3358 166° South 281 323 13,100  Level Washington Center
10:51AM 39.4444 -75.3389 182° South 309 356 15,400 1,860 Climbing Washington Center
10:52AM 39.3486 -75.3581 189° South 326 375 16,900 720 Climbing Washington Center
10:53AM 39.2569 -75.3744 188° South 337 388 16,900 60 Level Washington Center
10:54AM 39.1633 -75.3881 186° South 342 394 17,100 960 Climbing Washington Center
10:55AM 39.0675 -75.4044 188° South 347 399 18,900 1,860 Climbing Washington Center
10:56AM 38.9714 -75.4181 186° South 352 405 20,900 1,800 Climbing Washington Center
10:57AM 38.8756 -75.4422 191° South 352 405 22,500 1,440 Climbing Washington Center
10:58AM 38.7881 -75.5092 211° Southwest 357 411 23,900 1,380 Climbing Washington Center
10:59AM 38.6986 -75.5758 210° Southwest 362 417 25,400 1,320 Climbing Washington Center
11:00AM 38.6047 -75.6475 211° Southwest 381 438 26,600 1,260 Climbing Washington Center
11:01AM 38.5108 -75.7192 211° Southwest 386 444 28,000 1,260 Climbing Washington Center
11:02AM 38.4169 -75.7853 209° Southwest 386 444 29,200 1,260 Climbing Washington Center
11:03AM 38.3314 -75.8458 209° Southwest 386 444 30,500 1,320 Climbing Washington Center
11:04AM 38.2289 -75.9247 211° Southwest 395 455 31,900 1,200 Climbing Washington Center
11:05AM 38.1328 -75.9931 209° Southwest 395 455 33,000 1,020 Climbing Washington Center
11:06AM 38.0431 -76.0583 210° Southwest 395 455 34,000 480 Climbing Washington Center
11:07AM 37.9531 -76.1264 211° Southwest 389 448 34,000  Level Washington Center
11:08AM 37.8608 -76.1914 209° Southwest 382 440 34,000  Level Washington Center
11:09AM 37.7708 -76.2564 210° Southwest 382 440 34,000  Level Washington Center
11:10AM 37.6789 -76.3211 209° Southwest 382 440 34,000  Level Washington Center
11:11AM 37.5908 -76.3858 210° Southwest 382 440 34,000  Level Washington Center
11:12AM 37.4986 -76.4531 210° Southwest 382 440 34,000  Level Washington Center
11:13AM 37.4064 -76.5200 210° Southwest 382 440 34,000  Level Washington Center
11:14AM 37.3139 -76.5842 209° Southwest 382 440 34,000  Level Washington Center
11:15AM 37.2217 -76.6481 209° Southwest 382 440 34,000  Level Washington Center
11:16AM 37.1314 -76.7147 210° Southwest 382 440 34,000  Level Washington Center
11:17AM 37.0411 -76.7811 210° Southwest 382 440 34,000  Level Washington Center
11:18AM 36.9506 -76.8447 209° Southwest 382 440 34,000  Level Washington Center
11:19AM 36.8603 -76.9106 210° Southwest 382 440 34,000  Level Washington Center
11:20AM 36.7678 -76.9739 209° Southwest 382 440 34,000  Level Washington Center
11:21AM 36.6814 -77.0422 212° Southwest 382 440 34,000  Level Washington Center
11:22AM 36.5992 -77.1211 218° Southwest 382 440 34,000  Level Washington Center
11:23AM 36.5167 -77.1994 217° Southwest 382 440 34,000  Level Washington Center
11:24AM 36.4322 -77.2778 217° Southwest 382 440 34,000  Level Washington Center
11:25AM 36.3517 -77.3561 218° Southwest 382 440 34,000  Level Washington Center
11:26AM 36.2669 -77.4367 217° Southwest 382 440 34,000  Level Washington Center
11:27AM 36.1867 -77.5119 217° Southwest 376 433 34,000  Level Washington Center
11:28AM 36.1039 -77.5922 218° Southwest 376 433 34,000  Level Washington Center
11:29AM 36.0192 -77.6694 216° Southwest 376 433 34,000  Level Washington Center
11:30AM 35.9344 -77.7392 214° Southwest 376 433 34,000  Level Washington Center
11:31AM 35.8433 -77.8111 213° Southwest 381 438 34,000  Level Washington Center
11:32AM 35.7586 -77.8778 213° Southwest 381 438 34,000  Level Washington Center
11:33AM 35.6717 -77.9469 213° Southwest 375 432 34,000  Level Washington Center
11:34AM 35.5828 -78.0158 212° Southwest 380 437 34,000  Level Washington Center
11:35AM 35.4936 -78.0844 212° Southwest 380 437 34,000  Level Washington Center
11:36AM 35.4047 -78.1531 212° Southwest 380 437 34,000  Level Washington Center
11:37AM 35.3306 -78.2067 211° Southwest 380 437 34,000  Level Washington Center
11:38AM 35.2369 -78.2850 214° Southwest 380 437 34,000  Level Washington Center
11:39AM 35.1456 -78.3531 211° Southwest 380 437 34,000  Level Washington Center
11:40AM 35.0756 -78.4067 212° Southwest 380 437 34,000  Level Washington Center
11:41AM 34.9672 -78.4914 213° Southwest 380 437 34,000  Level Washington Center
11:42AM 34.8817 -78.5719 218° Southwest 380 437 34,000  Level Washington Center
11:45AM 34.6039 -78.8492 219° Southwest 389 448 34,000  Level Jacksonville Center
11:46AM 34.5211 -78.9286 218° Southwest 389 448 34,000  Level Jacksonville Center
11:47AM 34.4361 -79.0208 222° Southwest 406 467 34,000  Level Jacksonville Center
11:48AM 34.3533 -79.1047 220° Southwest 405 466 34,000  Level Jacksonville Center
11:49AM 34.2681 -79.1864 218° Southwest 400 460 34,000  Level Jacksonville Center
11:50AM 34.1808 -79.2706 219° Southwest 400 460 34,000  Level Jacksonville Center
11:51AM 34.0956 -79.3542 219° Southwest 395 455 34,000  Level Jacksonville Center
11:52AM 34.0042 -79.4406 218° Southwest 390 449 34,000  Level Jacksonville Center
11:53AM 33.9186 -79.5242 219° Southwest 390 449 34,000  Level Jacksonville Center
11:54AM 33.8333 -79.6050 218° Southwest 396 456 34,000  Level Jacksonville Center
11:55AM 33.7458 -79.6906 219° Southwest 396 456 34,000  Level Jacksonville Center
11:56AM 33.6603 -79.7761 220° Southwest 396 456 34,000 -180 Level Jacksonville Center
11:57AM 33.5744 -79.8589 219° Southwest 396 456 33,700 -1,200 Descending Jacksonville Center
11:58AM 33.4867 -79.9414 218° Southwest 401 461 31,700 -2,100 Descending Jacksonville Center
11:59AM 33.4011 -80.0239 219° Southwest 401 461 29,600 -2,100 Descending Jacksonville Center
12:00PM 33.3153 -80.1086 220° Southwest 401 461 27,500 -2,100 Descending Jacksonville Center
12:01PM 33.2272 -80.1908 218° Southwest 406 467 25,400 -1,920 Descending Jacksonville Center
12:02PM 33.1494 -80.2628 218° Southwest 406 467 23,700 -1,860 Descending Jacksonville Center
12:03PM 33.0617 -80.3519 220° Southwest 393 452 21,700 -1,920 Descending Jacksonville Center
12:04PM 32.9897 -80.4136 216° Southwest 375 432 19,900 -1,980 Descending Jacksonville Center
12:05PM 32.9139 -80.4850 218° Southwest 362 417 17,800 -1,800 Descending Jacksonville Center
12:06PM 32.8400 -80.5561 219° Southwest 356 410 16,400 -1,620 Descending Jacksonville Center
12:07PM 32.7683 -80.6222 218° Southwest 351 404 14,600 -1,740 Descending Jacksonville Center
12:08PM 32.6964 -80.6906 219° Southwest 340 391 13,000 -1,680 Descending Jacksonville Center
12:09PM 32.6286 -80.7539 218° Southwest 335 386 11,300 -1,620 Descending Jacksonville Center
12:10PM 32.5589 -80.8222 220° Southwest 309 356 9,800 -1,500 Descending Jacksonville Center
12:11PM 32.4972 -80.8803 218° Southwest 285 328 8,300 -900 Descending Jacksonville Center
12:12PM 32.4436 -80.9281 217° Southwest 279 321 8,100 -180 Descending Jacksonville Center
12:13PM 32.3839 -80.9836 218° Southwest 273 314 8,000 -1,080 Descending Jacksonville Center
12:14PM 32.3181 -81.0439 218° Southwest 273 314 6,000 -1,800 Descending Jacksonville Center
12:15PM 32.2603 -81.0942 216° Southwest 267 307 4,400 -1,620 Descending Jacksonville Center
12:16PM 32.2047 -81.1494 220° Southwest 267 307 2,800 -1,200 Descending Jacksonville Center
12:17PM 32.1931 -81.2256 260° West 254 292 2,000 -840 Descending Jacksonville Center